createdAt,value
2017-05-22T00:01:08.880Z,3.48
2017-05-22T00:03:37.168Z,3.74
2017-05-22T00:06:06.031Z,3.78
2017-05-22T00:08:34.397Z,3.82
2017-05-22T00:11:02.767Z,3.62
2017-05-22T00:13:31.071Z,3.70
2017-05-22T00:15:59.430Z,3.88
2017-05-22T00:18:27.732Z,3.92
2017-05-22T00:20:56.017Z,3.86
2017-05-22T00:23:24.352Z,4.48
2017-05-22T00:25:52.732Z,3.84
2017-05-22T00:28:21.111Z,4.08
2017-05-22T00:30:49.396Z,4.54
2017-05-22T00:33:17.716Z,4.44
2017-05-22T00:35:46.047Z,4.42
2017-05-22T00:38:14.417Z,4.18
2017-05-22T00:40:42.801Z,3.40
2017-05-22T00:43:11.080Z,4.24
2017-05-22T00:45:39.447Z,3.50
2017-05-22T00:48:07.824Z,3.16
2017-05-22T00:50:36.123Z,3.86
2017-05-22T00:53:04.404Z,3.86
2017-05-22T00:55:32.759Z,4.10
2017-05-22T00:58:01.047Z,3.92
2017-05-22T01:00:29.345Z,4.00
2017-05-22T01:02:57.625Z,4.12
2017-05-22T01:05:25.964Z,3.84
2017-05-22T01:07:54.248Z,4.14
2017-05-22T01:10:22.992Z,4.70
2017-05-22T01:12:52.063Z,3.80
2017-05-22T01:15:20.351Z,4.28
2017-05-22T01:17:48.679Z,4.60
2017-05-22T01:20:17.431Z,3.98
2017-05-22T01:22:45.736Z,4.04
2017-05-22T01:25:14.111Z,3.78
2017-05-22T01:27:42.407Z,4.10
2017-05-22T01:30:10.773Z,3.18
2017-05-22T01:32:39.144Z,5.88
2017-05-22T01:35:07.526Z,4.88
2017-05-22T01:37:35.853Z,4.66
2017-05-22T01:40:04.181Z,4.82
2017-05-22T01:42:32.556Z,4.50
2017-05-22T01:45:00.856Z,4.98
2017-05-22T01:47:29.207Z,4.62
2017-05-22T01:49:57.588Z,3.64
2017-05-22T01:52:25.871Z,4.16
2017-05-22T01:54:54.248Z,4.64
2017-05-22T01:57:22.527Z,4.32
2017-05-22T01:59:50.904Z,4.82
2017-05-22T02:02:19.188Z,4.38
2017-05-22T02:04:47.547Z,4.58
2017-05-22T02:07:15.823Z,4.44
2017-05-22T02:09:44.114Z,3.50
2017-05-22T02:12:12.492Z,4.58
2017-05-22T02:14:40.777Z,4.78
2017-05-22T02:17:09.076Z,5.16
2017-05-22T02:19:37.407Z,4.98
2017-05-22T02:22:05.703Z,4.20
2017-05-22T02:24:33.988Z,4.68
2017-05-22T02:27:02.288Z,4.60
2017-05-22T02:29:30.585Z,3.88
2017-05-22T02:31:58.924Z,4.70
2017-05-22T02:34:27.203Z,4.38
2017-05-22T02:36:55.484Z,4.50
2017-05-22T02:39:23.816Z,5.04
2017-05-22T02:41:52.092Z,4.94
2017-05-22T02:44:20.473Z,4.28
2017-05-22T02:46:48.857Z,4.80
2017-05-22T02:49:17.167Z,4.74
2017-05-22T02:51:46.330Z,5.16
2017-05-22T02:54:14.700Z,4.34
2017-05-22T02:56:42.993Z,4.58
2017-05-22T02:59:11.355Z,4.20
2017-05-22T03:01:39.756Z,4.92
2017-05-22T03:04:08.040Z,4.80
2017-05-22T03:06:36.339Z,4.50
2017-05-22T03:09:04.664Z,4.66
2017-05-22T03:11:33.039Z,5.02
2017-05-22T03:14:01.317Z,4.70
2017-05-22T03:16:29.616Z,5.08
2017-05-22T03:18:57.896Z,5.10
2017-05-22T03:21:26.252Z,4.48
2017-05-22T03:23:54.623Z,4.82
2017-05-22T03:26:22.920Z,5.42
2017-05-22T03:28:51.201Z,5.38
2017-05-22T03:31:19.944Z,5.38
2017-05-22T03:33:48.444Z,4.92
2017-05-22T03:36:16.726Z,5.16
2017-05-22T03:38:45.024Z,5.50
2017-05-22T03:41:13.377Z,4.34
2017-05-22T03:43:41.740Z,4.58
2017-05-22T03:46:10.020Z,4.64
2017-05-22T03:48:38.324Z,5.02
2017-05-22T03:51:06.604Z,4.80
2017-05-22T03:53:34.958Z,4.92
2017-05-22T03:56:03.240Z,5.02
2017-05-22T03:58:31.613Z,3.90
2017-05-22T04:00:59.892Z,4.42
2017-05-22T04:03:28.272Z,4.36
2017-05-22T04:05:56.568Z,4.86
2017-05-22T04:08:25.662Z,4.16
2017-05-22T04:10:54.019Z,4.60
2017-05-22T04:13:22.391Z,4.90
2017-05-22T04:15:50.692Z,5.32
2017-05-22T04:18:18.972Z,5.90
2017-05-22T04:20:47.325Z,7.80
2017-05-22T04:23:15.607Z,6.68
2017-05-22T04:25:43.906Z,5.78
2017-05-22T04:28:12.183Z,5.42
2017-05-22T04:30:40.529Z,5.88
2017-05-22T04:33:08.910Z,5.68
2017-05-22T04:35:37.231Z,4.60
2017-05-22T04:38:05.560Z,5.40
2017-05-22T04:40:33.944Z,6.20
2017-05-22T04:43:02.317Z,5.20
2017-05-22T04:45:30.683Z,5.02
2017-05-22T04:47:58.980Z,5.04
2017-05-22T04:50:27.348Z,6.12
2017-05-22T04:52:55.649Z,5.70
2017-05-22T04:55:24.005Z,5.64
2017-05-22T04:57:52.381Z,5.40
2017-05-22T05:00:20.764Z,4.80
2017-05-22T05:02:49.139Z,4.50
2017-05-22T05:05:17.520Z,5.42
2017-05-22T05:07:45.892Z,4.46
2017-05-22T05:10:14.273Z,5.80
2017-05-22T05:12:42.647Z,5.36
2017-05-22T05:15:11.024Z,4.90
2017-05-22T05:17:39.404Z,6.44
2017-05-22T05:20:07.701Z,5.44
2017-05-22T05:22:35.983Z,5.26
2017-05-22T05:25:04.715Z,5.66
2017-05-22T05:27:32.992Z,5.48
2017-05-22T05:30:01.293Z,5.92
2017-05-22T05:32:29.577Z,5.54
2017-05-22T05:34:57.956Z,5.06
2017-05-22T05:37:26.244Z,6.12
2017-05-22T05:39:54.961Z,6.22
2017-05-22T05:42:23.287Z,6.48
2017-05-22T05:44:51.572Z,7.00
2017-05-22T05:47:19.940Z,5.98
2017-05-22T05:49:48.224Z,6.32
2017-05-22T05:52:16.531Z,6.66
2017-05-22T05:54:44.812Z,7.56
2017-05-22T05:57:13.112Z,7.76
2017-05-22T05:59:41.428Z,6.60
2017-05-22T06:02:09.729Z,6.66
2017-05-22T06:04:38.080Z,7.32
2017-05-22T06:07:06.456Z,7.58
2017-05-22T06:09:34.736Z,7.74
2017-05-22T06:12:03.060Z,8.02
2017-05-22T06:14:31.384Z,7.72
2017-05-22T06:16:59.759Z,7.64
2017-05-22T06:19:28.140Z,7.38
2017-05-22T06:21:57.371Z,8.50
2017-05-22T06:24:25.676Z,7.42
2017-05-22T06:26:53.991Z,8.02
2017-05-22T06:29:23.089Z,7.84
2017-05-22T06:31:51.371Z,7.62
2017-05-22T06:34:19.740Z,7.76
2017-05-22T06:36:48.031Z,7.92
2017-05-22T06:39:16.393Z,8.72
2017-05-22T06:41:43.907Z,8.40
2017-05-22T06:44:12.205Z,8.32
2017-05-22T06:46:40.486Z,7.68
2017-05-22T06:49:08.882Z,7.88
2017-05-22T06:51:37.164Z,7.82
2017-05-22T06:54:05.443Z,7.50
2017-05-22T06:56:33.805Z,8.22
2017-05-22T06:59:02.188Z,7.68
2017-05-22T07:01:30.571Z,7.88
2017-05-22T07:03:58.852Z,8.00
2017-05-22T07:06:27.200Z,6.70
2017-05-22T07:08:55.475Z,8.50
2017-05-22T07:11:24.248Z,7.76
2017-05-22T07:13:52.527Z,6.92
2017-05-22T07:16:20.838Z,7.92
2017-05-22T07:18:49.115Z,6.76
2017-05-22T07:21:17.502Z,7.64
2017-05-22T07:23:46.008Z,7.60
2017-05-22T07:26:14.348Z,7.44
2017-05-22T07:28:43.051Z,8.12
2017-05-22T07:31:11.332Z,7.92
2017-05-22T07:33:39.702Z,8.08
2017-05-22T07:36:08.063Z,8.38
2017-05-22T07:38:36.360Z,7.84
2017-05-22T07:41:04.899Z,7.46
2017-05-22T07:43:33.215Z,8.02
2017-05-22T07:46:01.594Z,6.52
2017-05-22T07:48:29.914Z,7.12
2017-05-22T07:50:58.215Z,7.00
2017-05-22T07:53:26.535Z,7.78
2017-05-22T07:55:54.837Z,7.98
2017-05-22T07:58:23.179Z,7.76
2017-05-22T08:00:51.479Z,7.82
2017-05-22T08:03:19.837Z,7.86
2017-05-22T08:05:48.209Z,6.52
2017-05-22T08:08:16.506Z,8.00
2017-05-22T08:10:44.870Z,8.06
2017-05-22T08:13:13.166Z,7.62
2017-05-22T08:15:41.473Z,7.20
2017-05-22T08:18:09.753Z,7.92
2017-05-22T08:20:38.156Z,7.92
2017-05-22T08:23:06.551Z,6.94
2017-05-22T08:25:34.872Z,6.66
2017-05-22T08:28:03.194Z,7.10
2017-05-22T08:30:31.513Z,6.48
2017-05-22T08:32:59.845Z,7.38
2017-05-22T08:35:28.219Z,7.14
2017-05-22T08:37:56.539Z,7.40
2017-05-22T08:40:24.838Z,7.38
2017-05-22T08:42:53.166Z,7.88
2017-05-22T08:45:21.530Z,6.28
2017-05-22T08:47:49.931Z,7.12
2017-05-22T08:50:18.290Z,7.14
2017-05-22T08:52:46.593Z,6.88
2017-05-22T08:55:14.886Z,7.52
2017-05-22T08:57:43.202Z,7.48
2017-05-22T09:00:11.484Z,7.12
2017-05-22T09:02:39.798Z,6.70
2017-05-22T09:05:08.084Z,7.42
2017-05-22T09:07:36.439Z,6.22
2017-05-22T09:10:04.724Z,7.16
2017-05-22T09:12:33.004Z,7.28
2017-05-22T09:15:01.347Z,7.44
2017-05-22T09:17:30.151Z,7.58
2017-05-22T09:19:58.458Z,7.48
2017-05-22T09:22:26.811Z,6.54
2017-05-22T09:24:55.116Z,5.90
2017-05-22T09:27:23.444Z,6.52
2017-05-22T09:29:51.759Z,6.30
2017-05-22T09:32:20.882Z,6.12
2017-05-22T09:34:49.184Z,7.42
2017-05-22T09:37:17.590Z,8.26
2017-05-22T09:39:45.964Z,7.20
2017-05-22T09:42:14.342Z,6.72
2017-05-22T09:44:43.153Z,7.16
2017-05-22T09:47:11.510Z,6.24
2017-05-22T09:49:40.615Z,6.48
2017-05-22T09:52:08.985Z,6.24
2017-05-22T10:08:19.009Z,6.76
2017-05-22T10:10:47.322Z,7.96
2017-05-22T10:13:15.683Z,7.10
2017-05-22T10:15:44.051Z,8.16
2017-05-22T10:18:12.372Z,7.28
2017-05-22T10:20:40.710Z,7.28
2017-05-22T10:23:09.022Z,7.42
2017-05-22T10:25:37.349Z,6.72
2017-05-22T10:28:05.693Z,5.82
2017-05-22T10:30:34.010Z,6.42
2017-05-22T10:33:02.376Z,6.20
2017-05-22T10:35:30.781Z,6.16
2017-05-22T10:37:59.131Z,5.60
2017-05-22T10:40:27.427Z,6.40
2017-05-22T10:42:55.707Z,6.70
2017-05-22T10:45:24.079Z,6.74
2017-05-22T10:47:52.381Z,5.82
2017-05-22T10:50:20.709Z,5.38
2017-05-22T10:52:49.122Z,6.32
2017-05-22T10:55:17.486Z,5.14
2017-05-22T10:57:45.786Z,6.22
2017-05-22T11:00:14.098Z,6.36
2017-05-22T11:02:42.399Z,5.64
2017-05-22T11:05:10.734Z,6.58
2017-05-22T11:07:39.057Z,6.38
2017-05-22T11:10:07.362Z,8.84
2017-05-22T11:12:35.663Z,6.08
2017-05-22T11:15:03.958Z,5.88
2017-05-22T11:17:32.279Z,4.68
2017-05-22T11:20:00.563Z,6.08
2017-05-22T11:22:28.878Z,5.88
2017-05-22T11:24:57.248Z,6.36
2017-05-22T11:27:25.582Z,6.22
2017-05-22T11:29:54.326Z,6.06
2017-05-22T11:32:22.645Z,5.68
2017-05-22T11:34:50.942Z,6.30
2017-05-22T11:37:19.256Z,5.08
2017-05-22T11:39:48.190Z,6.10
2017-05-22T11:42:16.559Z,6.12
2017-05-22T11:44:44.855Z,5.14
2017-05-22T11:47:13.154Z,6.26
2017-05-22T11:49:41.483Z,5.76
2017-05-22T11:52:09.873Z,5.12
2017-05-22T11:54:38.240Z,5.18
2017-05-22T11:57:06.519Z,5.44
2017-05-22T11:59:34.819Z,5.82
2017-05-22T12:02:03.173Z,6.56
2017-05-22T12:04:31.565Z,5.92
2017-05-22T12:06:59.861Z,6.82
2017-05-22T12:09:28.215Z,6.08
2017-05-22T12:11:56.512Z,6.18
2017-05-22T12:14:24.806Z,6.08
2017-05-22T12:16:53.108Z,5.42
2017-05-22T12:19:21.407Z,4.78
2017-05-22T12:21:49.798Z,5.82
2017-05-22T12:24:18.092Z,5.22
2017-05-22T12:26:46.410Z,5.10
2017-05-22T12:29:14.715Z,4.92
2017-05-22T12:31:43.107Z,5.12
2017-05-22T12:34:11.472Z,6.10
2017-05-22T12:36:39.781Z,6.74
2017-05-22T12:39:08.139Z,5.58
2017-05-22T12:41:36.482Z,5.56
2017-05-22T12:44:04.764Z,5.62
2017-05-22T12:46:33.044Z,5.22
2017-05-22T12:49:01.353Z,5.36
2017-05-22T12:51:29.734Z,4.84
2017-05-22T12:53:58.099Z,4.82
2017-05-22T12:56:26.465Z,4.82
2017-05-22T12:58:54.774Z,5.26
2017-05-22T13:01:23.071Z,5.48
2017-05-22T13:03:51.395Z,5.46
2017-05-22T13:06:19.691Z,5.88
2017-05-22T13:08:47.997Z,6.14
2017-05-22T13:11:16.302Z,6.38
2017-05-22T13:13:44.619Z,4.90
2017-05-22T13:16:12.914Z,5.08
2017-05-22T13:18:41.238Z,5.26
2017-05-22T13:21:09.539Z,6.00
2017-05-22T13:23:37.824Z,5.58
2017-05-22T13:26:06.198Z,5.68
2017-05-22T13:28:34.479Z,5.30
2017-05-22T13:31:02.790Z,5.62
2017-05-22T13:33:31.089Z,5.38
2017-05-22T13:35:59.389Z,5.20
2017-05-22T13:38:27.671Z,5.62
2017-05-22T13:40:56.059Z,6.08
2017-05-22T13:43:24.358Z,4.80
2017-05-22T13:45:52.674Z,5.50
2017-05-22T13:48:20.971Z,5.92
2017-05-22T13:50:49.299Z,5.52
2017-05-22T13:53:17.603Z,5.28
2017-05-22T13:55:45.903Z,5.76
2017-05-22T13:58:14.219Z,5.50
2017-05-22T14:00:42.556Z,4.60
2017-05-22T14:03:10.947Z,6.06
2017-05-22T14:05:39.249Z,5.08
2017-05-22T14:08:07.547Z,5.58
2017-05-22T14:10:35.878Z,5.30
2017-05-22T14:13:04.768Z,5.98
2017-05-22T14:15:33.166Z,4.70
2017-05-22T14:18:01.479Z,5.42
2017-05-22T14:20:29.797Z,4.22
2017-05-22T14:22:58.110Z,6.20
2017-05-22T14:25:26.421Z,4.08
2017-05-22T14:27:54.759Z,4.80
2017-05-22T14:30:23.568Z,5.00
2017-05-22T14:32:51.895Z,5.10
2017-05-22T14:35:20.218Z,5.34
2017-05-22T14:37:48.518Z,5.04
2017-05-22T14:40:16.926Z,5.02
2017-05-22T14:42:45.225Z,4.58
2017-05-22T14:45:13.524Z,4.50
2017-05-22T14:47:41.802Z,5.42
2017-05-22T14:50:10.724Z,5.36
2017-05-22T14:52:39.009Z,4.82
2017-05-22T14:55:07.304Z,4.04
2017-05-22T14:57:35.603Z,4.90
2017-05-22T15:00:03.918Z,4.82
2017-05-22T15:02:32.226Z,5.28
2017-05-22T15:05:00.549Z,5.16
2017-05-22T15:07:28.886Z,4.72
2017-05-22T15:09:57.190Z,4.76
2017-05-22T15:12:25.509Z,5.06
2017-05-22T15:14:53.811Z,4.36
2017-05-22T15:17:22.130Z,4.86
2017-05-22T15:19:49.657Z,4.60
2017-05-22T15:22:18.742Z,5.00
2017-05-22T15:24:47.099Z,4.12
2017-05-22T15:27:15.417Z,4.12
2017-05-22T15:29:43.719Z,4.20
2017-05-22T15:32:12.038Z,4.10
2017-05-22T15:34:40.334Z,4.26
2017-05-22T15:37:08.702Z,3.54
2017-05-22T15:39:36.998Z,4.14
2017-05-22T15:42:05.319Z,3.92
2017-05-22T15:44:33.614Z,3.62
2017-05-22T15:47:02.006Z,4.50
2017-05-22T15:49:30.326Z,5.52
2017-05-22T15:51:58.626Z,3.80
2017-05-22T15:54:26.938Z,3.98
2017-05-22T15:56:55.234Z,3.90
2017-05-22T15:59:23.531Z,3.52
2017-05-22T16:01:51.934Z,3.24
2017-05-22T16:04:20.247Z,4.06
2017-05-22T16:06:48.621Z,3.74
2017-05-22T16:09:16.942Z,3.30
2017-05-22T16:11:45.264Z,3.46
2017-05-22T16:14:13.601Z,3.56
2017-05-22T16:16:41.906Z,3.46
2017-05-22T16:19:10.211Z,3.48
2017-05-22T16:21:38.573Z,4.12
2017-05-22T16:24:06.950Z,3.78
2017-05-22T16:26:35.277Z,4.60
2017-05-22T16:29:03.605Z,4.06
2017-05-22T16:31:31.905Z,4.24
2017-05-22T16:34:00.202Z,3.68
2017-05-22T16:36:28.531Z,3.88
2017-05-22T16:38:56.927Z,3.52
2017-05-22T16:41:25.246Z,3.80
2017-05-22T16:43:53.532Z,4.82
2017-05-22T16:46:21.846Z,5.20
2017-05-22T16:48:50.136Z,6.66
2017-05-22T16:51:18.491Z,5.18
2017-05-22T16:53:46.871Z,4.56
2017-05-22T16:56:15.252Z,5.88
2017-05-22T16:58:43.550Z,5.40
2017-05-22T17:01:11.835Z,4.06
2017-05-22T17:03:40.198Z,5.78
2017-05-22T17:06:08.499Z,5.10
2017-05-22T17:08:36.796Z,4.86
2017-05-22T17:11:05.095Z,4.58
2017-05-22T17:13:33.506Z,4.56
2017-05-22T17:16:01.800Z,4.70
2017-05-22T17:18:30.139Z,5.00
2017-05-22T17:20:58.456Z,7.48
2017-05-22T17:23:26.736Z,8.04
2017-05-22T17:25:55.059Z,5.76
2017-05-22T17:28:23.364Z,14.14
2017-05-22T17:30:51.671Z,27.54
2017-05-22T17:33:20.950Z,11.80
2017-05-22T17:35:49.255Z,24.48
2017-05-22T17:38:17.594Z,7.18
2017-05-22T17:40:45.951Z,24.54
2017-05-22T17:43:14.347Z,41.94
2017-05-22T17:45:42.654Z,24.54
2017-05-22T17:48:10.986Z,36.44
2017-05-22T17:50:39.765Z,6.02
2017-05-22T17:53:08.081Z,6.70
2017-05-22T17:55:37.309Z,6.02
2017-05-22T17:58:05.633Z,11.30
2017-05-22T18:00:33.938Z,12.28
2017-05-22T18:03:02.239Z,21.90
2017-05-22T18:05:30.545Z,6.68
2017-05-22T18:07:58.870Z,16.42
2017-05-22T18:10:27.176Z,6.54
2017-05-22T18:12:55.509Z,10.22
2017-05-22T18:15:23.881Z,14.46
2017-05-22T18:17:52.255Z,6.56
2017-05-22T18:20:20.559Z,6.68
2017-05-22T18:22:48.916Z,13.46
2017-05-22T18:25:17.230Z,9.00
2017-05-22T18:27:45.527Z,7.40
2017-05-22T18:30:13.830Z,5.86
2017-05-22T18:32:42.219Z,6.42
2017-05-22T18:35:11.023Z,6.30
2017-05-22T18:37:39.322Z,8.22
2017-05-22T18:40:07.661Z,6.24
2017-05-22T18:42:35.966Z,5.78
2017-05-22T18:45:04.291Z,6.60
2017-05-22T18:47:33.120Z,6.44
2017-05-22T18:50:01.423Z,7.46
2017-05-22T18:52:29.728Z,8.22
2017-05-22T18:54:58.139Z,8.92
2017-05-22T18:57:26.453Z,11.88
2017-05-22T18:59:54.750Z,7.40
2017-05-22T19:02:23.074Z,12.10
2017-05-22T19:04:51.393Z,7.94
2017-05-22T19:07:19.710Z,6.82
2017-05-22T19:09:48.013Z,10.88
2017-05-22T19:12:16.319Z,11.36
2017-05-22T19:14:44.650Z,10.00
2017-05-22T19:17:12.978Z,28.62
2017-05-22T19:19:41.301Z,9.78
2017-05-22T19:22:09.606Z,9.62
2017-05-22T19:24:37.945Z,13.38
2017-05-22T19:27:06.246Z,11.36
2017-05-22T19:29:34.566Z,22.62
2017-05-22T19:32:02.863Z,6.98
2017-05-22T19:34:31.262Z,7.80
2017-05-22T19:36:59.646Z,9.50
2017-05-22T19:39:27.968Z,7.80
2017-05-22T19:41:56.642Z,6.86
2017-05-22T19:44:24.973Z,20.72
2017-05-22T19:46:53.282Z,18.90
2017-05-22T19:49:21.585Z,8.68
2017-05-22T19:51:49.906Z,17.52
2017-05-22T19:54:18.206Z,13.82
2017-05-22T19:56:46.534Z,18.02
2017-05-22T19:59:14.838Z,15.12
2017-05-22T20:01:43.135Z,8.20
2017-05-22T20:04:11.494Z,18.74
2017-05-22T20:06:39.870Z,18.68
2017-05-22T20:09:08.157Z,8.12
2017-05-22T20:11:36.479Z,8.80
2017-05-22T20:14:04.889Z,17.54
2017-05-22T20:16:33.188Z,7.70
2017-05-22T20:19:01.510Z,8.16
2017-05-22T20:21:29.834Z,8.42
2017-05-22T20:23:58.136Z,9.72
2017-05-22T20:26:26.473Z,13.38
2017-05-22T20:28:54.794Z,23.46
2017-05-22T20:31:23.138Z,8.44
2017-05-22T20:33:51.462Z,12.56
2017-05-22T20:36:19.751Z,12.28
2017-05-22T20:38:48.079Z,25.10
2017-05-22T20:41:16.386Z,22.92
2017-05-22T20:43:44.712Z,14.42
2017-05-22T20:46:13.098Z,9.64
2017-05-22T20:48:41.392Z,22.84
2017-05-22T20:51:09.745Z,9.32
2017-05-22T20:53:38.115Z,9.04
2017-05-22T20:56:06.510Z,8.48
2017-05-22T20:58:34.796Z,8.66
2017-05-22T21:01:03.112Z,8.22
2017-05-22T21:03:31.397Z,9.74
2017-05-22T21:05:59.713Z,8.28
2017-05-22T21:08:28.000Z,9.04
2017-05-22T21:10:56.317Z,9.92
2017-05-22T21:13:24.646Z,8.66
2017-05-22T21:15:52.946Z,8.18
2017-05-22T21:18:21.261Z,8.52
2017-05-22T21:20:49.569Z,9.94
2017-05-22T21:23:17.883Z,8.32
2017-05-22T21:25:46.171Z,8.56
2017-05-22T21:28:14.492Z,8.90
2017-05-22T21:30:42.771Z,8.38
2017-05-22T21:33:11.071Z,9.20
2017-05-22T21:35:39.639Z,10.22
2017-05-22T21:38:07.963Z,8.90
2017-05-22T21:40:36.256Z,9.76
2017-05-22T21:43:04.674Z,9.36
2017-05-22T21:45:32.971Z,8.28
2017-05-22T21:48:01.255Z,9.76
2017-05-22T21:50:29.574Z,10.94
2017-05-22T21:52:57.979Z,9.50
2017-05-22T21:55:26.280Z,9.26
2017-05-22T21:57:54.638Z,8.72
2017-05-22T22:00:22.962Z,10.48
2017-05-22T22:02:51.273Z,8.12
2017-05-22T22:05:19.589Z,10.24
2017-05-22T22:07:47.941Z,9.42
2017-05-22T22:10:16.251Z,10.40
2017-05-22T22:12:44.594Z,9.66
2017-05-22T22:15:12.907Z,10.04
2017-05-22T22:17:41.210Z,10.10
2017-05-22T22:20:09.551Z,10.04
2017-05-22T22:22:37.835Z,9.16
2017-05-22T22:25:06.115Z,9.36
2017-05-22T22:27:34.450Z,9.80
2017-05-22T22:30:02.758Z,10.32
2017-05-22T22:32:31.098Z,10.90
2017-05-22T22:34:59.392Z,10.22
2017-05-22T22:37:27.749Z,9.20
2017-05-22T22:39:56.123Z,11.28
2017-05-22T22:42:24.442Z,10.20
2017-05-22T22:44:52.746Z,10.82
2017-05-22T22:47:21.162Z,11.46
2017-05-22T22:49:49.462Z,9.60
2017-05-22T22:52:17.811Z,10.72
2017-05-22T22:54:46.095Z,9.74
2017-05-22T22:57:14.399Z,10.34
2017-05-22T22:59:42.708Z,10.46
2017-05-22T23:02:11.021Z,10.68
2017-05-22T23:04:39.396Z,10.80
2017-05-22T23:07:07.687Z,11.06
2017-05-22T23:09:36.002Z,10.74
2017-05-22T23:12:04.297Z,10.10
2017-05-22T23:14:32.714Z,9.16
2017-05-22T23:17:01.094Z,8.56
2017-05-22T23:19:29.418Z,10.36
2017-05-22T23:21:57.703Z,9.06
2017-05-22T23:24:26.035Z,10.94
2017-05-22T23:26:54.343Z,9.60
2017-05-22T23:29:22.632Z,11.32
2017-05-22T23:31:51.045Z,11.44
2017-05-22T23:34:19.333Z,10.26
2017-05-22T23:36:47.654Z,10.70
2017-05-22T23:39:15.947Z,10.54
2017-05-22T23:41:44.262Z,10.66
2017-05-22T23:44:12.566Z,10.52
2017-05-22T23:46:40.922Z,9.00
2017-05-22T23:49:09.213Z,11.16
2017-05-22T23:51:37.520Z,11.36
2017-05-22T23:54:05.822Z,10.94
2017-05-22T23:56:34.616Z,10.44
2017-05-22T23:59:02.923Z,11.78
